Acton, Indiana
Current Conditions -  °F | °C
As of 4:53 PM on Thursday 20 Nov 2014 (Local Time) from KGEZ Reporting Station
Clear Clear  
Wind Chill: -7°   Ceiling: Unl
Heat Index: -1°   Visibility: 10mi
Dew Point: -10°   Wind: 15mph
Humidity: 51%   Direction: 260°W
Pressure: 30.15"   Gusts: NA
Location:  39.6613°N, 85.9949°W
Report Text: KGEZ 202153Z AUTO 26013KT 10SM CLR M01/M10 A3015 RMK AO2 SLP221 T10111100
Loading
Personal Weather Stations






























Interactive Weather Map New forecast layout! Learn more

10-Day Weather Forecast

Advertisements
Track Severe Weather on mobile